createdAt,value
2022-08-17T00:03:13.484Z,23.45
2022-08-17T00:08:24.053Z,27.17
2022-08-17T00:13:31.429Z,28.37
2022-08-17T00:18:53.823Z,21.00
2022-08-17T00:24:00.907Z,21.55
2022-08-17T00:29:05.034Z,22.10
2022-08-17T00:34:10.115Z,22.35
2022-08-17T00:39:15.028Z,22.02
2022-08-17T00:44:18.678Z,20.92
2022-08-17T00:49:23.690Z,21.92
2022-08-17T00:54:32.511Z,27.08
2022-08-17T00:59:51.081Z,21.58
2022-08-17T01:05:08.615Z,28.00
2022-08-17T01:11:00.038Z,27.05
2022-08-17T01:15:46.226Z,22.80
2022-08-17T01:20:52.328Z,24.45
2022-08-17T01:26:02.330Z,26.95
2022-08-17T01:31:08.519Z,26.13
2022-08-17T01:36:12.008Z,26.52
2022-08-17T01:41:18.585Z,19.13
2022-08-17T01:46:26.957Z,24.08
2022-08-17T01:51:33.086Z,26.88
2022-08-17T01:56:41.900Z,27.13
2022-08-17T02:01:47.428Z,27.92
2022-08-17T02:06:53.469Z,26.25
2022-08-17T02:12:38.278Z,25.20
2022-08-17T02:17:27.130Z,31.58
2022-08-17T02:22:31.467Z,27.13
2022-08-17T02:27:36.575Z,26.02
2022-08-17T02:32:40.902Z,25.25
2022-08-17T02:37:44.490Z,22.52
2022-08-17T02:42:53.842Z,24.92
2022-08-17T02:47:57.369Z,25.83
2022-08-17T02:53:01.948Z,27.30
2022-08-17T02:58:08.348Z,23.35
2022-08-17T03:03:13.740Z,27.55
2022-08-17T03:08:17.255Z,26.55
2022-08-17T03:13:23.289Z,27.08
2022-08-17T03:18:28.014Z,32.92
2022-08-17T03:23:33.728Z,27.10
2022-08-17T03:28:39.285Z,26.65
2022-08-17T03:33:42.961Z,27.88
2022-08-17T03:38:46.441Z,29.38
2022-08-17T03:43:51.292Z,30.83
2022-08-17T03:49:12.681Z,29.58
2022-08-17T03:54:33.514Z,30.65
2022-08-17T03:59:39.366Z,36.33
2022-08-17T04:04:44.561Z,34.05
2022-08-17T04:09:48.371Z,33.42
2022-08-17T04:14:54.994Z,32.63
2022-08-17T04:19:58.987Z,29.98
2022-08-17T04:25:05.740Z,31.05
2022-08-17T04:30:12.277Z,31.08
2022-08-17T04:35:19.550Z,36.03
2022-08-17T04:40:42.825Z,28.35
2022-08-17T04:45:55.477Z,29.38
2022-08-17T04:51:00.870Z,28.33
2022-08-17T04:56:05.347Z,26.40
2022-08-17T05:01:10.589Z,25.05
2022-08-17T05:06:14.180Z,27.13
2022-08-17T05:11:17.991Z,26.42
2022-08-17T05:16:24.501Z,27.55
2022-08-17T05:21:28.652Z,25.25
2022-08-17T05:26:34.394Z,26.80
2022-08-17T05:31:41.426Z,23.45
2022-08-17T05:36:45.228Z,22.58
2022-08-17T05:41:49.313Z,23.67
2022-08-17T05:46:54.649Z,17.55
2022-08-17T05:52:18.761Z,30.95
2022-08-17T05:57:53.389Z,19.95
2022-08-17T06:03:18.129Z,23.75
2022-08-17T06:08:30.469Z,27.67
2022-08-17T06:13:50.934Z,23.98
2022-08-17T06:18:59.891Z,22.42
2022-08-17T06:24:08.508Z,23.83
2022-08-17T06:29:22.634Z,23.20
2022-08-17T06:34:27.580Z,26.58
2022-08-17T06:39:49.808Z,27.42
2022-08-17T06:45:02.594Z,26.95
2022-08-17T06:50:18.777Z,29.05
2022-08-17T06:55:27.328Z,31.10
2022-08-17T07:00:37.631Z,31.40
2022-08-17T07:05:47.192Z,32.30
2022-08-17T07:10:55.612Z,32.85
2022-08-17T07:16:07.488Z,34.38
2022-08-17T07:21:26.187Z,49.00
2022-08-17T07:26:30.428Z,38.67
2022-08-17T07:31:34.012Z,37.80
2022-08-17T07:36:38.913Z,37.88
2022-08-17T07:41:53.139Z,42.80
2022-08-17T07:47:19.444Z,38.42
2022-08-17T07:52:50.770Z,57.85
2022-08-17T07:57:58.238Z,43.35
2022-08-17T08:03:15.986Z,40.65
2022-08-17T08:08:28.189Z,47.92
2022-08-17T08:13:33.361Z,46.63
2022-08-17T08:18:54.241Z,49.38
2022-08-17T08:24:17.002Z,50.47
2022-08-17T08:29:29.372Z,48.40
2022-08-17T08:35:02.098Z,50.80
2022-08-17T08:40:21.000Z,46.80
2022-08-17T08:45:30.605Z,45.50
2022-08-17T08:50:47.483Z,41.38
2022-08-17T08:55:57.198Z,41.92
2022-08-17T09:01:04.417Z,48.95
2022-08-17T09:06:32.198Z,50.05
2022-08-17T09:12:02.560Z,52.00
2022-08-17T09:17:13.746Z,49.03
2022-08-17T09:22:31.621Z,51.58
2022-08-17T09:27:47.655Z,45.50
2022-08-17T09:32:55.739Z,40.10
2022-08-17T09:38:04.683Z,40.42
2022-08-17T09:43:17.273Z,48.35
2022-08-17T09:48:27.676Z,36.67
2022-08-17T09:53:31.973Z,40.88
2022-08-17T09:58:51.514Z,35.45
2022-08-17T10:04:11.074Z,35.08
2022-08-17T10:09:22.135Z,32.28
2022-08-17T10:14:37.213Z,41.67
2022-08-17T10:19:57.415Z,30.23
2022-08-17T10:25:26.018Z,31.38
2022-08-17T10:30:44.682Z,33.38
2022-08-17T10:35:58.478Z,30.75
2022-08-17T10:41:07.780Z,30.00
2022-08-17T10:46:30.905Z,28.15
2022-08-17T10:51:38.887Z,30.15
2022-08-17T10:56:50.341Z,28.90
2022-08-17T11:02:13.997Z,30.75
2022-08-17T11:07:32.672Z,30.08
2022-08-17T11:12:51.657Z,32.63
2022-08-17T11:18:18.516Z,34.63
2022-08-17T11:23:46.188Z,37.60
2022-08-17T11:28:54.441Z,33.58
2022-08-17T11:34:07.492Z,42.15
2022-08-17T11:39:36.584Z,42.97
2022-08-17T11:44:53.645Z,42.78
2022-08-17T11:50:49.002Z,41.55
2022-08-17T11:56:09.680Z,40.63
2022-08-17T12:01:16.160Z,39.13
2022-08-17T12:06:31.123Z,44.22
2022-08-17T12:12:01.687Z,43.88
2022-08-17T12:17:09.211Z,40.23
2022-08-17T12:22:23.638Z,42.92
2022-08-17T12:27:46.253Z,41.25
2022-08-17T12:32:57.192Z,36.83
2022-08-17T12:38:03.754Z,51.15
2022-08-17T12:43:09.517Z,40.60
2022-08-17T12:48:22.632Z,41.90
2022-08-17T12:53:31.447Z,39.22
2022-08-17T12:58:44.861Z,40.50
2022-08-17T13:03:51.794Z,38.63
2022-08-17T13:08:56.956Z,37.42
2022-08-17T13:14:10.634Z,40.15
2022-08-17T13:19:16.611Z,39.53
2022-08-17T13:24:25.637Z,48.22
2022-08-17T13:29:34.517Z,44.00
2022-08-17T13:35:12.959Z,38.83
2022-08-17T13:40:30.110Z,42.47
2022-08-17T13:45:52.396Z,42.15
2022-08-17T13:51:15.153Z,44.78
2022-08-17T13:56:37.913Z,43.35
2022-08-17T14:01:48.520Z,41.58
2022-08-17T14:06:58.849Z,46.20
2022-08-17T14:12:06.227Z,45.13
2022-08-17T14:17:09.993Z,46.78
2022-08-17T14:22:20.250Z,47.38
2022-08-17T14:27:28.176Z,46.28
2022-08-17T14:32:35.734Z,45.80
2022-08-17T14:37:39.587Z,43.20
2022-08-17T14:42:46.170Z,44.78
2022-08-17T14:47:50.003Z,70.88
2022-08-17T14:52:55.182Z,47.40
2022-08-17T14:58:00.765Z,42.47
2022-08-17T15:03:05.255Z,43.15
2022-08-17T15:08:09.027Z,40.92
2022-08-17T15:13:20.145Z,46.67
2022-08-17T15:18:25.080Z,48.25
2022-08-17T15:23:28.616Z,41.25
2022-08-17T15:28:33.576Z,43.67
2022-08-17T15:33:37.230Z,47.13
2022-08-17T15:38:41.122Z,42.38
2022-08-17T15:43:50.922Z,42.10
2022-08-17T15:48:59.680Z,50.03
2022-08-17T15:54:18.788Z,40.42
2022-08-17T15:59:31.124Z,49.13
2022-08-17T16:04:34.803Z,47.25
2022-08-17T16:09:39.968Z,44.25
2022-08-17T16:14:45.606Z,44.45
2022-08-17T16:19:49.310Z,44.13
2022-08-17T16:24:57.462Z,44.33
2022-08-17T16:30:03.124Z,39.15
2022-08-17T16:35:10.987Z,50.13
2022-08-17T16:40:15.923Z,50.70
2022-08-17T16:45:23.761Z,47.33
2022-08-17T16:50:27.401Z,50.28
2022-08-17T16:55:30.967Z,52.53
2022-08-17T17:00:37.417Z,49.65
2022-08-17T17:06:00.190Z,55.75
2022-08-17T17:11:13.898Z,51.20
2022-08-17T17:16:24.097Z,53.53
2022-08-17T17:21:37.363Z,47.58
2022-08-17T17:26:55.197Z,55.53
2022-08-17T17:32:13.951Z,52.25
2022-08-17T17:37:26.577Z,51.33
2022-08-17T17:42:33.023Z,54.38
2022-08-17T17:47:38.421Z,55.35
2022-08-17T17:52:53.343Z,52.20
2022-08-17T17:58:07.621Z,57.13
2022-08-17T18:03:25.766Z,49.80
2022-08-17T18:08:45.696Z,55.63
2022-08-17T18:14:04.120Z,55.37
2022-08-17T18:19:14.130Z,54.53
2022-08-17T18:24:31.075Z,51.90
2022-08-17T18:29:42.148Z,55.88
2022-08-17T18:34:49.850Z,53.10
2022-08-17T18:39:53.672Z,55.45
2022-08-17T18:44:57.255Z,57.28
2022-08-17T18:50:24.422Z,57.67
2022-08-17T18:55:30.250Z,52.58
2022-08-17T19:00:40.327Z,52.65
2022-08-17T19:05:47.992Z,52.30
2022-08-17T19:10:55.223Z,55.53
2022-08-17T19:16:13.897Z,53.08
2022-08-17T19:21:25.210Z,54.90
2022-08-17T19:26:54.647Z,54.67
2022-08-17T19:31:58.946Z,49.30
2022-08-17T19:37:15.158Z,55.97
2022-08-17T19:42:31.186Z,47.30
2022-08-17T19:47:54.869Z,56.85
2022-08-17T19:53:08.487Z,55.38
2022-08-17T19:58:25.693Z,63.38
2022-08-17T20:03:35.892Z,56.53
2022-08-17T20:08:44.312Z,54.30
2022-08-17T20:13:57.070Z,66.72
2022-08-17T20:19:04.510Z,64.68
2022-08-17T20:24:22.123Z,69.65
2022-08-17T20:29:39.666Z,59.97
2022-08-17T20:34:47.680Z,66.68
2022-08-17T20:40:18.960Z,71.43
2022-08-17T20:45:59.904Z,79.95
2022-08-17T20:51:19.305Z,71.88
2022-08-17T20:56:57.347Z,69.85
2022-08-17T21:02:18.905Z,56.45
2022-08-17T21:07:30.030Z,58.30
2022-08-17T21:12:43.288Z,69.28
2022-08-17T21:17:51.400Z,69.13
2022-08-17T21:23:12.541Z,73.35
2022-08-17T21:33:36.182Z,65.00
2022-08-17T21:38:51.560Z,73.97
2022-08-17T21:44:05.170Z,68.20
2022-08-17T21:49:13.409Z,69.25
2022-08-17T21:54:35.630Z,81.85
2022-08-17T21:59:40.930Z,70.07
2022-08-17T22:04:56.004Z,66.22
2022-08-17T22:09:59.500Z,68.03
2022-08-17T22:15:09.592Z,68.97
2022-08-17T22:20:17.257Z,70.23
2022-08-17T22:25:22.873Z,68.38
2022-08-17T22:30:31.468Z,64.90
2022-08-17T22:35:41.065Z,56.72
2022-08-17T22:40:46.657Z,60.20
2022-08-17T22:45:54.493Z,67.03
2022-08-17T22:51:15.365Z,67.00
2022-08-17T22:56:38.546Z,57.40
2022-08-17T23:01:46.329Z,53.50
2022-08-17T23:06:52.966Z,52.75
2022-08-17T23:12:08.732Z,50.83
2022-08-17T23:17:14.009Z,50.17
2022-08-17T23:22:22.076Z,50.60
2022-08-17T23:27:26.768Z,47.47
2022-08-17T23:32:31.688Z,43.22
2022-08-17T23:37:35.690Z,41.58
2022-08-17T23:42:43.667Z,39.75
2022-08-17T23:47:52.282Z,43.72
2022-08-17T23:52:55.867Z,42.95
2022-08-17T23:57:59.380Z,41.63
